Aberdeen Proving Ground, Maryland
Current Conditions -  °F | °C
As of 10:54 AM on Sunday 23 Nov 2014 (Local Time) from KMTN Reporting Station
Scattered Clouds Scattered Clouds  
Wind Chill: 44°   Ceiling: Unl
Heat Index: 46°   Visibility: 10mi
Dew Point: 25°   Wind: 5mph
Humidity: 43%   Direction: 160°SSE
Pressure: 30.22"   Gusts: NA
Location:  39.48°N, 76.13°W
Report Text: KMTN 231554Z 16004KT 10SM SCT180 08/M04 A3022
Loading
Personal Weather Stations






























Interactive Weather Map New forecast layout! Learn more

10-Day Weather Forecast

Advertisements
Track Severe Weather on mobile